Time;durP1;ratioP1;P1;durP2;ratioP2;P2;SDS_P1;SDS_P2;PMS_P1;PMS_P2;Temp;Humidity;BMP_temperature;BMP_pressure;BME280_temperature;BME280_humidity;BME280_pressure;Samples;Min_cycle;Max_cycle;Signal;HPM_P1;HPM_P2
2022/05/30 00:00:55;;;;;;;6.05;0.50;;;;;;;;;;5344625;27;20040;-69
2022/05/30 00:03:26;;;;;;;7.60;0.70;;;;;;;;;;5343331;27;20032;-70
2022/05/30 00:05:57;;;;;;;7.38;1.27;;;;;;;;;;5344608;27;20361;-69
2022/05/30 00:08:29;;;;;;;8.65;0.95;;;;;;;;;;5344035;28;20269;-69
2022/05/30 00:11:01;;;;;;;8.88;0.50;;;;;;;;;;5343331;28;20276;-69
2022/05/30 00:13:32;;;;;;;6.68;0.80;;;;;;;;;;5344000;28;20519;-69
2022/05/30 00:16:07;;;;;;;7.38;0.85;;;;;;;;;;5343852;27;20084;-69
2022/05/30 00:18:39;;;;;;;6.35;0.50;;;;;;;;;;5343273;28;20102;-70
2022/05/30 00:21:10;;;;;;;9.15;0.80;;;;;;;;;;5344257;28;20118;-69
2022/05/30 00:23:41;;;;;;;5.00;0.40;;;;;;;;;;5346271;27;20015;-69
2022/05/30 00:26:12;;;;;;;10.27;1.05;;;;;;;;;;5346872;27;20481;-69
2022/05/30 00:28:43;;;;;;;5.78;0.43;;;;;;;;;;5347600;27;20264;-69
2022/05/30 00:31:15;;;;;;;5.05;0.90;;;;;;;;;;5347316;27;20357;-69
2022/05/30 00:33:47;;;;;;;6.03;0.65;;;;;;;;;;5347884;27;20015;-70
2022/05/30 00:36:18;;;;;;;6.15;0.68;;;;;;;;;;5347593;27;20031;-70
2022/05/30 00:38:49;;;;;;;6.47;0.60;;;;;;;;;;5347217;27;20540;-70
2022/05/30 00:41:21;;;;;;;7.07;0.50;;;;;;;;;;5347222;27;20105;-70
2022/05/30 00:43:52;;;;;;;6.07;0.50;;;;;;;;;;5347918;27;20378;-69
2022/05/30 00:46:23;;;;;;;8.90;0.60;;;;;;;;;;5346282;27;20024;-70
2022/05/30 00:49:08;;;;;;;3.97;0.40;;;;;;;;;;5347607;27;20470;-70
2022/05/30 00:51:42;;;;;;;5.63;1.15;;;;;;;;;;5347688;27;20267;-70
2022/05/30 00:54:18;;;;;;;8.75;0.82;;;;;;;;;;5346551;27;20030;-70
2022/05/30 00:56:52;;;;;;;6.88;0.55;;;;;;;;;;5347673;27;20058;-69
2022/05/30 00:59:24;;;;;;;10.98;0.70;;;;;;;;;;5346217;27;20031;-70
2022/05/30 01:01:55;;;;;;;4.25;0.70;;;;;;;;;;5347458;27;20108;-69
2022/05/30 01:07:16;;;;;;;8.82;0.65;;;;;;;;;;5347004;27;20474;-69
2022/05/30 01:09:48;;;;;;;3.97;0.50;;;;;;;;;;5347063;27;20047;-70
2022/05/30 01:12:33;;;;;;;7.22;0.70;;;;;;;;;;5346641;27;20333;-70
2022/05/30 01:15:06;;;;;;;4.05;0.50;;;;;;;;;;5346406;27;20531;-70
2022/05/30 01:17:51;;;;;;;7.40;0.60;;;;;;;;;;5346887;27;20102;-70
2022/05/30 01:20:25;;;;;;;7.65;1.05;;;;;;;;;;5345777;27;20100;-70
2022/05/30 01:23:21;;;;;;;4.55;0.55;;;;;;;;;;5347364;27;20045;-70
2022/05/30 01:26:12;;;;;;;6.40;0.60;;;;;;;;;;5347095;27;20496;-70
2022/05/30 01:28:45;;;;;;;7.13;0.65;;;;;;;;;;5345821;27;20382;-70
2022/05/30 01:31:16;;;;;;;6.05;1.17;;;;;;;;;;5346636;27;20042;-70
2022/05/30 01:33:48;;;;;;;5.15;0.80;;;;;;;;;;5346596;27;20027;-69
2022/05/30 01:36:26;;;;;;;7.10;0.95;;;;;;;;;;5345372;27;20309;-70
2022/05/30 01:38:58;;;;;;;5.03;0.50;;;;;;;;;;5346656;27;20019;-70
2022/05/30 01:41:29;;;;;;;5.82;0.60;;;;;;;;;;5345093;27;20021;-69
2022/05/30 01:44:00;;;;;;;6.88;0.95;;;;;;;;;;5346622;27;20101;-70
2022/05/30 01:46:31;;;;;;;10.62;1.06;;;;;;;;;;5346356;27;20276;-70
2022/05/30 01:49:03;;;;;;;7.13;1.15;;;;;;;;;;5345714;27;20015;-70
2022/05/30 01:51:34;;;;;;;6.78;0.90;;;;;;;;;;5346277;27;20019;-70
2022/05/30 01:54:05;;;;;;;5.13;0.70;;;;;;;;;;5346319;27;20025;-70
2022/05/30 01:56:36;;;;;;;8.55;0.80;;;;;;;;;;5345545;27;20034;-70
2022/05/30 01:59:07;;;;;;;7.28;0.57;;;;;;;;;;5346289;27;20265;-70
2022/05/30 02:01:41;;;;;;;7.88;0.90;;;;;;;;;;5346000;27;20481;-70
2022/05/30 02:04:12;;;;;;;7.75;1.13;;;;;;;;;;5345186;27;20291;-70
2022/05/30 02:06:44;;;;;;;7.68;0.63;;;;;;;;;;5345807;27;20022;-70
2022/05/30 02:09:15;;;;;;;10.30;0.90;;;;;;;;;;5346100;27;20377;-70
2022/05/30 02:11:46;;;;;;;8.15;0.70;;;;;;;;;;5345234;27;20019;-69
2022/05/30 02:14:18;;;;;;;5.03;0.70;;;;;;;;;;5345854;27;20331;-70
2022/05/30 02:17:01;;;;;;;10.23;1.15;;;;;;;;;;5344768;27;20058;-70
2022/05/30 02:19:36;;;;;;;9.50;1.45;;;;;;;;;;5345917;27;20018;-70
2022/05/30 02:22:09;;;;;;;8.35;1.00;;;;;;;;;;5345855;27;20473;-70
2022/05/30 02:24:41;;;;;;;9.77;1.08;;;;;;;;;;5344945;27;20031;-69
2022/05/30 02:27:12;;;;;;;7.10;1.10;;;;;;;;;;5345649;27;20023;-70
2022/05/30 02:29:44;;;;;;;6.97;1.58;;;;;;;;;;5345685;27;20134;-69
2022/05/30 02:32:15;;;;;;;6.65;1.35;;;;;;;;;;5344614;27;20027;-70
2022/05/30 02:37:43;;;;;;;6.47;1.27;;;;;;;;;;5305221;27;20076;-69
2022/05/30 02:40:15;;;;;;;5.45;1.35;;;;;;;;;;5345507;27;20023;-69
2022/05/30 02:42:46;;;;;;;5.64;1.62;;;;;;;;;;5345829;27;20015;-70
2022/05/30 02:45:17;;;;;;;8.52;2.05;;;;;;;;;;5344193;27;20008;-70
2022/05/30 02:47:48;;;;;;;8.14;1.80;;;;;;;;;;5345231;27;20042;-70
2022/05/30 02:50:19;;;;;;;6.63;1.70;;;;;;;;;;5344846;27;20357;-70
2022/05/30 02:52:51;;;;;;;7.43;2.55;;;;;;;;;;5344851;27;20253;-70
2022/05/30 02:55:22;;;;;;;7.97;2.25;;;;;;;;;;5344796;27;20291;-70
2022/05/30 02:57:53;;;;;;;10.43;2.80;;;;;;;;;;5345425;27;20265;-69
2022/05/30 03:00:26;;;;;;;10.63;3.15;;;;;;;;;;5343785;27;20309;-70
2022/05/30 03:02:57;;;;;;;9.38;2.58;;;;;;;;;;5345353;27;20261;-69
2022/05/30 03:05:30;;;;;;;16.60;3.30;;;;;;;;;;5344781;27;20020;-70
2022/05/30 03:08:03;;;;;;;12.32;2.80;;;;;;;;;;5344176;27;20344;-69
2022/05/30 03:10:34;;;;;;;9.13;3.05;;;;;;;;;;5344912;27;20382;-69
2022/05/30 03:13:06;;;;;;;14.35;3.35;;;;;;;;;;5344041;27;20019;-70
2022/05/30 03:15:37;;;;;;;13.35;3.20;;;;;;;;;;5344624;27;20098;-70
2022/05/30 03:18:08;;;;;;;9.52;3.05;;;;;;;;;;5344814;27;20446;-69
2022/05/30 03:20:39;;;;;;;8.98;2.70;;;;;;;;;;5344024;27;20386;-69
2022/05/30 03:23:11;;;;;;;13.35;3.95;;;;;;;;;;5344635;27;20023;-70
2022/05/30 03:25:42;;;;;;;10.10;2.88;;;;;;;;;;5344701;27;20374;-69
2022/05/30 03:28:13;;;;;;;7.47;2.85;;;;;;;;;;5343885;27;20011;-69
2022/05/30 03:30:45;;;;;;;9.90;3.25;;;;;;;;;;5344655;28;20276;-71
2022/05/30 03:33:16;;;;;;;9.27;2.53;;;;;;;;;;5344439;28;20102;-69
2022/05/30 03:35:47;;;;;;;6.55;2.17;;;;;;;;;;5343523;27;20490;-70
2022/05/30 03:38:18;;;;;;;9.38;2.50;;;;;;;;;;5344252;27;20466;-70
2022/05/30 03:40:50;;;;;;;6.88;2.72;;;;;;;;;;5344011;27;20034;-70
2022/05/30 03:43:21;;;;;;;12.00;3.38;;;;;;;;;;5344170;28;20064;-70
2022/05/30 03:45:52;;;;;;;14.38;3.15;;;;;;;;;;5344629;27;20023;-70
2022/05/30 03:48:23;;;;;;;7.03;2.90;;;;;;;;;;5343325;28;20019;-70
2022/05/30 03:50:55;;;;;;;11.07;2.97;;;;;;;;;;5344673;28;20273;-70
2022/05/30 03:53:26;;;;;;;10.18;3.05;;;;;;;;;;5344330;27;20012;-71
2022/05/30 03:55:57;;;;;;;10.15;2.97;;;;;;;;;;5343935;27;20019;-71
2022/05/30 03:58:29;;;;;;;11.10;3.05;;;;;;;;;;5346284;27;20015;-70
2022/05/30 04:01:00;;;;;;;8.93;3.42;;;;;;;;;;5348605;27;20090;-70
2022/05/30 04:03:31;;;;;;;10.02;2.95;;;;;;;;;;5347882;27;20348;-70
2022/05/30 04:06:03;;;;;;;7.05;2.72;;;;;;;;;;5348620;27;20080;-71
2022/05/30 04:08:35;;;;;;;11.45;3.55;;;;;;;;;;5348415;27;20099;-70
2022/05/30 04:11:06;;;;;;;11.35;3.55;;;;;;;;;;5347564;27;20126;-70
2022/05/30 04:13:37;;;;;;;13.13;3.00;;;;;;;;;;5348339;27;20520;-71
2022/05/30 04:16:12;;;;;;;11.43;2.67;;;;;;;;;;5347138;27;20051;-70
2022/05/30 04:18:44;;;;;;;7.60;2.58;;;;;;;;;;5348151;27;20092;-72
2022/05/30 04:21:15;;;;;;;11.75;3.10;;;;;;;;;;5348077;27;20011;-72
2022/05/30 04:23:46;;;;;;;10.98;3.78;;;;;;;;;;5347271;27;20015;-71
2022/05/30 04:26:17;;;;;;;8.93;3.47;;;;;;;;;;5348187;27;20016;-71
2022/05/30 04:28:49;;;;;;;10.93;3.40;;;;;;;;;;5347830;27;20043;-71
2022/05/30 04:31:20;;;;;;;12.25;3.35;;;;;;;;;;5346892;27;20102;-71
2022/05/30 04:33:51;;;;;;;10.55;3.63;;;;;;;;;;5348017;27;20060;-70
2022/05/30 04:36:22;;;;;;;14.88;4.28;;;;;;;;;;5347322;27;20052;-71
2022/05/30 04:38:53;;;;;;;12.18;3.38;;;;;;;;;;5347408;27;20019;-71
2022/05/30 04:41:24;;;;;;;11.00;4.05;;;;;;;;;;5347721;27;20110;-71
2022/05/30 04:43:59;;;;;;;11.57;4.00;;;;;;;;;;5348104;27;20261;-71
2022/05/30 04:46:30;;;;;;;11.98;4.20;;;;;;;;;;5346505;27;20263;-72
2022/05/30 04:49:01;;;;;;;11.57;4.03;;;;;;;;;;5347444;27;20094;-70
2022/05/30 04:51:32;;;;;;;11.10;4.03;;;;;;;;;;5346630;27;20051;-71
2022/05/30 04:54:04;;;;;;;11.10;4.07;;;;;;;;;;5347645;27;20261;-71
2022/05/30 04:56:35;;;;;;;12.77;3.72;;;;;;;;;;5347354;27;20295;-71
2022/05/30 04:59:07;;;;;;;13.65;5.18;;;;;;;;;;5346486;27;20008;-71
2022/05/30 05:01:38;;;;;;;8.82;4.47;;;;;;;;;;5347585;27;20296;-71
2022/05/30 05:04:11;;;;;;;10.38;3.83;;;;;;;;;;5347269;27;20051;-71
2022/05/30 05:06:45;;;;;;;10.38;4.00;;;;;;;;;;5346580;27;20043;-71
2022/05/30 05:09:16;;;;;;;15.07;4.88;;;;;;;;;;5346784;27;20477;-71
2022/05/30 05:11:47;;;;;;;11.35;4.60;;;;;;;;;;5347147;27;20022;-71
2022/05/30 05:14:18;;;;;;;15.13;4.22;;;;;;;;;;5346030;27;20723;-71
2022/05/30 05:16:50;;;;;;;13.10;4.35;;;;;;;;;;5347043;27;20049;-71
2022/05/30 05:19:21;;;;;;;13.10;4.40;;;;;;;;;;5345855;27;20019;-72
2022/05/30 05:21:52;;;;;;;12.65;4.07;;;;;;;;;;5347171;27;20272;-70
2022/05/30 05:24:23;;;;;;;9.40;3.65;;;;;;;;;;5346626;27;20042;-70
2022/05/30 05:26:54;;;;;;;12.93;4.45;;;;;;;;;;5346359;27;20378;-70
2022/05/30 05:29:25;;;;;;;10.10;3.78;;;;;;;;;;5346641;27;20751;-70
2022/05/30 05:31:57;;;;;;;10.13;4.13;;;;;;;;;;5347377;27;20098;-72
2022/05/30 05:34:28;;;;;;;7.35;3.60;;;;;;;;;;5345639;27;20136;-71
2022/05/30 05:37:00;;;;;;;11.90;3.86;;;;;;;;;;5346900;27;20087;-70
2022/05/30 05:39:31;;;;;;;12.05;3.33;;;;;;;;;;5346628;27;20023;-70
2022/05/30 05:42:02;;;;;;;12.02;2.90;;;;;;;;;;5345829;27;20027;-70
2022/05/30 05:44:34;;;;;;;9.23;3.10;;;;;;;;;;5346411;27;20517;-72
2022/05/30 05:47:05;;;;;;;10.70;2.65;;;;;;;;;;5346318;27;20053;-70
2022/05/30 05:49:36;;;;;;;8.43;3.50;;;;;;;;;;5345794;27;20256;-70
2022/05/30 05:52:07;;;;;;;10.85;2.80;;;;;;;;;;5346516;27;20003;-70
2022/05/30 05:54:39;;;;;;;12.80;2.58;;;;;;;;;;5345677;27;20026;-70
2022/05/30 05:57:10;;;;;;;11.90;2.35;;;;;;;;;;5346393;27;20076;-70
2022/05/30 05:59:41;;;;;;;7.70;2.00;;;;;;;;;;5346356;27;20253;-70
2022/05/30 06:02:12;;;;;;;12.48;2.80;;;;;;;;;;5345281;27;20045;-70
2022/05/30 06:04:44;;;;;;;6.70;1.42;;;;;;;;;;5346265;27;20624;-69
2022/05/30 06:07:15;;;;;;;8.70;2.53;;;;;;;;;;5346072;27;20424;-69
2022/05/30 06:09:46;;;;;;;9.75;2.28;;;;;;;;;;5345321;27;20096;-70
2022/05/30 06:12:18;;;;;;;9.35;1.13;;;;;;;;;;5345824;27;20255;-69
2022/05/30 06:14:50;;;;;;;11.77;2.67;;;;;;;;;;5346094;27;20043;-70
2022/05/30 06:17:21;;;;;;;8.70;1.20;;;;;;;;;;5344598;27;20035;-70
2022/05/30 06:19:52;;;;;;;4.38;0.90;;;;;;;;;;5345579;27;20120;-70
2022/05/30 06:22:23;;;;;;;8.88;1.27;;;;;;;;;;5344941;27;20034;-69
2022/05/30 06:24:54;;;;;;;7.38;0.90;;;;;;;;;;5345169;27;20279;-70
2022/05/30 06:27:25;;;;;;;8.45;1.02;;;;;;;;;;5345489;27;20326;-70
2022/05/30 06:29:57;;;;;;;4.78;0.85;;;;;;;;;;5345280;27;20276;-70
2022/05/30 06:32:28;;;;;;;6.93;0.60;;;;;;;;;;5345323;27;20265;-69
2022/05/30 06:34:59;;;;;;;7.93;0.60;;;;;;;;;;5345811;27;20156;-69
2022/05/30 06:37:30;;;;;;;6.85;1.00;;;;;;;;;;5344070;27;20403;-69
2022/05/30 06:40:03;;;;;;;6.65;0.50;;;;;;;;;;5345714;27;20646;-70
2022/05/30 06:42:34;;;;;;;10.32;0.70;;;;;;;;;;5345540;27;20035;-69
2022/05/30 06:45:05;;;;;;;5.00;0.80;;;;;;;;;;5344448;27;20076;-70
2022/05/30 06:47:36;;;;;;;6.65;0.90;;;;;;;;;;5345079;27;20524;-70
2022/05/30 06:50:08;;;;;;;5.82;0.55;;;;;;;;;;5345518;27;20033;-70
2022/05/30 06:52:39;;;;;;;9.98;0.60;;;;;;;;;;5344564;27;20696;-70
2022/05/30 06:55:10;;;;;;;7.32;0.80;;;;;;;;;;5345341;27;20019;-70
2022/05/30 07:00:31;;;;;;;5.30;0.40;;;;;;;;;;5345598;27;20304;-70
2022/05/30 07:03:03;;;;;;;6.10;0.50;;;;;;;;;;5345214;27;20058;-70
2022/05/30 07:05:34;;;;;;;5.32;0.40;;;;;;;;;;5344108;27;20033;-70
2022/05/30 07:08:06;;;;;;;5.03;0.45;;;;;;;;;;5345099;27;20012;-70
2022/05/30 07:10:40;;;;;;;4.53;0.40;;;;;;;;;;5344738;27;20055;-69
2022/05/30 07:13:11;;;;;;;6.57;0.63;;;;;;;;;;5344193;27;20060;-70
2022/05/30 07:15:43;;;;;;;5.35;0.35;;;;;;;;;;5344782;27;20047;-69
2022/05/30 07:18:15;;;;;;;3.97;0.55;;;;;;;;;;5344783;27;20072;-70
2022/05/30 07:20:46;;;;;;;4.75;0.30;;;;;;;;;;5344141;28;20355;-70
2022/05/30 07:23:17;;;;;;;3.60;0.55;;;;;;;;;;5344597;27;20076;-70
2022/05/30 07:25:49;;;;;;;8.32;0.88;;;;;;;;;;5344925;27;20367;-70
2022/05/30 07:28:20;;;;;;;3.08;0.40;;;;;;;;;;5343593;27;20261;-70
2022/05/30 07:30:51;;;;;;;3.80;0.40;;;;;;;;;;5345269;28;20391;-70
2022/05/30 07:33:22;;;;;;;2.42;0.20;;;;;;;;;;5347364;27;20102;-70
2022/05/30 07:35:54;;;;;;;5.15;0.40;;;;;;;;;;5349454;27;20058;-69
2022/05/30 07:38:26;;;;;;;5.22;0.35;;;;;;;;;;5348694;27;20264;-69
2022/05/30 07:40:58;;;;;;;3.38;0.30;;;;;;;;;;5348486;27;20462;-70
2022/05/30 07:43:29;;;;;;;2.92;0.40;;;;;;;;;;5348642;27;20023;-70
2022/05/30 07:46:01;;;;;;;2.22;0.50;;;;;;;;;;5348896;27;20033;-70
2022/05/30 07:48:32;;;;;;;3.20;0.30;;;;;;;;;;5347804;27;20015;-71
2022/05/30 07:51:04;;;;;;;2.38;0.28;;;;;;;;;;5348538;27;20378;-70
2022/05/30 07:53:36;;;;;;;4.00;0.30;;;;;;;;;;5348322;27;20404;-70
2022/05/30 07:56:09;;;;;;;2.80;0.30;;;;;;;;;;5347647;27;20459;-70
2022/05/30 07:58:40;;;;;;;3.90;0.40;;;;;;;;;;5348787;27;20517;-70
2022/05/30 08:01:12;;;;;;;2.85;0.38;;;;;;;;;;5347937;27;20034;-70
2022/05/30 08:03:43;;;;;;;4.68;0.40;;;;;;;;;;5348490;27;20265;-69
2022/05/30 08:06:16;;;;;;;3.13;0.22;;;;;;;;;;5348354;27;20027;-69
2022/05/30 08:08:48;;;;;;;3.08;0.20;;;;;;;;;;5347415;27;20032;-70
2022/05/30 08:11:20;;;;;;;5.35;0.40;;;;;;;;;;5348102;27;20019;-70
2022/05/30 08:13:51;;;;;;;8.93;0.50;;;;;;;;;;5348592;27;20023;-69
2022/05/30 08:16:23;;;;;;;2.10;0.57;;;;;;;;;;5341326;27;20410;-69
2022/05/30 08:18:56;;;;;;;4.53;0.55;;;;;;;;;;5347940;27;20083;-69
2022/05/30 08:21:27;;;;;;;7.25;0.40;;;;;;;;;;5344997;27;20023;-69
2022/05/30 08:23:58;;;;;;;3.15;0.28;;;;;;;;;;5324862;27;20090;-69
2022/05/30 08:26:29;;;;;;;5.50;0.50;;;;;;;;;;5324312;28;20019;-70
2022/05/30 08:29:00;;;;;;;4.90;1.00;;;;;;;;;;5325472;28;20268;-70
2022/05/30 08:31:31;;;;;;;7.78;2.33;;;;;;;;;;5339516;27;20622;-70
2022/05/30 08:34:03;;;;;;;7.00;1.85;;;;;;;;;;5346650;27;20287;-70
2022/05/30 08:36:34;;;;;;;4.15;0.47;;;;;;;;;;5345975;27;20296;-70
2022/05/30 08:41:55;;;;;;;2.42;0.20;;;;;;;;;;5346939;27;20027;-70
2022/05/30 08:44:29;;;;;;;2.72;0.30;;;;;;;;;;5344792;27;20015;-70
2022/05/30 08:47:00;;;;;;;3.60;0.70;;;;;;;;;;5347054;27;20762;-71
2022/05/30 08:49:42;;;;;;;4.68;0.30;;;;;;;;;;5346651;27;20015;-71
2022/05/30 08:52:18;;;;;;;1.77;0.22;;;;;;;;;;5345579;27;20268;-71
2022/05/30 08:55:08;;;;;;;3.65;0.40;;;;;;;;;;5347026;27;20493;-71
2022/05/30 08:57:55;;;;;;;4.20;0.50;;;;;;;;;;5345559;27;20046;-71
2022/05/30 09:00:29;;;;;;;1.95;0.22;;;;;;;;;;5346167;27;20012;-71
2022/05/30 09:03:06;;;;;;;2.60;0.35;;;;;;;;;;5346247;27;20035;-71
2022/05/30 09:05:52;;;;;;;3.80;0.30;;;;;;;;;;5345638;27;20145;-71
2022/05/30 09:08:27;;;;;;;6.07;0.30;;;;;;;;;;5345768;27;20076;-68
2022/05/30 09:11:18;;;;;;;6.05;0.77;;;;;;;;;;5346525;27;20015;-69
2022/05/30 09:13:50;;;;;;;8.45;0.35;;;;;;;;;;5327425;27;20080;-69
2022/05/30 09:16:31;;;;;;;2.75;0.25;;;;;;;;;;5345478;27;20472;-70
2022/05/30 09:19:04;;;;;;;1.95;0.20;;;;;;;;;;5346251;27;20020;-70
2022/05/30 09:21:36;;;;;;;1.77;0.20;;;;;;;;;;5346580;27;20023;-69
2022/05/30 09:24:07;;;;;;;1.65;0.20;;;;;;;;;;5346650;27;20045;-71
2022/05/30 09:26:40;;;;;;;2.08;0.30;;;;;;;;;;5345823;27;20019;-69
2022/05/30 09:29:13;;;;;;;1.77;0.10;;;;;;;;;;5346747;27;20084;-69
2022/05/30 09:31:59;;;;;;;2.35;0.25;;;;;;;;;;5346687;27;20007;-68
2022/05/30 09:34:41;;;;;;;1.58;0.20;;;;;;;;;;5345325;27;20442;-69
2022/05/30 09:37:30;;;;;;;3.13;0.22;;;;;;;;;;5346364;27;20060;-69
2022/05/30 09:40:01;;;;;;;2.75;0.30;;;;;;;;;;5345784;27;20064;-70
2022/05/30 09:42:33;;;;;;;2.57;0.30;;;;;;;;;;5346383;27;20015;-70
2022/05/30 09:45:13;;;;;;;2.85;0.20;;;;;;;;;;5346328;27;20265;-70
2022/05/30 09:48:19;;;;;;;2.47;0.40;;;;;;;;;;5345841;27;20015;-70
2022/05/30 09:50:52;;;;;;;2.30;0.20;;;;;;;;;;5291896;27;20031;-70
2022/05/30 09:53:43;;;;;;;4.00;0.40;;;;;;;;;;5345899;27;20030;-70
2022/05/30 09:56:16;;;;;;;3.65;0.25;;;;;;;;;;5344865;27;20031;-70
2022/05/30 09:59:03;;;;;;;3.03;0.28;;;;;;;;;;5346160;27;20458;-70
2022/05/30 10:01:35;;;;;;;3.20;0.30;;;;;;;;;;5345599;27;20031;-70
2022/05/30 10:04:17;;;;;;;2.17;0.30;;;;;;;;;;5346129;27;20038;-70
2022/05/30 10:07:21;;;;;;;1.65;0.20;;;;;;;;;;5346058;27;20045;-70
2022/05/30 10:09:57;;;;;;;6.53;0.30;;;;;;;;;;5288953;27;20027;-69
2022/05/30 10:12:34;;;;;;;2.17;0.30;;;;;;;;;;5345749;27;20027;-70
2022/05/30 10:15:23;;;;;;;2.95;0.30;;;;;;;;;;5344848;27;20039;-70
2022/05/30 10:17:54;;;;;;;;;;;;;;;;;;5346271;27;20369;-72
2022/05/30 10:20:31;;;;;;;4.28;0.20;;;;;;;;;;5345129;27;20033;-72
2022/05/30 10:29:02;;;;;;;4.90;0.60;;;;;;;;;;5345636;27;20020;-69
2022/05/30 10:31:48;;;;;;;1.30;0.30;;;;;;;;;;5345392;27;20029;-70
2022/05/30 10:34:35;;;;;;;3.13;0.45;;;;;;;;;;5345185;27;20024;-70
2022/05/30 10:37:20;;;;;;;1.30;0.28;;;;;;;;;;5344557;27;20505;-70
2022/05/30 10:40:10;;;;;;;5.45;0.30;;;;;;;;;;5345532;27;20060;-69
2022/05/30 10:42:48;;;;;;;1.95;0.20;;;;;;;;;;5345286;27;20101;-70
2022/05/30 10:45:23;;;;;;;3.75;0.20;;;;;;;;;;5344907;27;20372;-69
2022/05/30 10:47:55;;;;;;;1.98;0.20;;;;;;;;;;5345585;27;20031;-69
2022/05/30 10:50:42;;;;;;;2.47;0.40;;;;;;;;;;5344020;27;20408;-70
2022/05/30 10:53:22;;;;;;;1.85;0.22;;;;;;;;;;5345113;27;20411;-70
2022/05/30 10:55:54;;;;;;;1.90;0.25;;;;;;;;;;5345634;27;20035;-70
2022/05/30 10:58:32;;;;;;;3.17;0.20;;;;;;;;;;5344160;27;20447;-70
2022/05/30 11:01:07;;;;;;;1.65;0.20;;;;;;;;;;5345370;27;20023;-69
2022/05/30 11:03:40;;;;;;;3.15;0.30;;;;;;;;;;5345174;27;20030;-69
2022/05/30 11:06:23;;;;;;;3.00;0.30;;;;;;;;;;5343881;27;20050;-70
2022/05/30 11:09:08;;;;;;;4.25;0.20;;;;;;;;;;5345221;27;20025;-70
2022/05/30 11:11:44;;;;;;;1.00;0.20;;;;;;;;;;5344179;27;20030;-69
2022/05/30 11:14:33;;;;;;;3.83;0.40;;;;;;;;;;5344681;27;20064;-69
2022/05/30 11:17:08;;;;;;;6.72;0.57;;;;;;;;;;5344730;27;20405;-69
2022/05/30 11:20:02;;;;;;;2.00;0.35;;;;;;;;;;5343972;27;20070;-69
2022/05/30 11:22:47;;;;;;;2.92;0.35;;;;;;;;;;5344621;27;20031;-70
2022/05/30 11:25:27;;;;;;;2.75;0.30;;;;;;;;;;5343948;28;20023;-70
2022/05/30 11:27:59;;;;;;;3.67;0.80;;;;;;;;;;5345146;27;20478;-69
2022/05/30 11:30:39;;;;;;;4.97;0.45;;;;;;;;;;5344643;27;20470;-69
2022/05/30 11:33:28;;;;;;;2.13;0.30;;;;;;;;;;5344390;27;20027;-69
2022/05/30 11:36:03;;;;;;;2.25;0.40;;;;;;;;;;5345109;28;20035;-70
2022/05/30 11:38:55;;;;;;;4.97;0.40;;;;;;;;;;5344548;27;20020;-69
2022/05/30 11:41:26;;;;;;;4.90;0.60;;;;;;;;;;5343322;27;20112;-70
2022/05/30 11:44:00;;;;;;;2.50;0.55;;;;;;;;;;5345303;28;20098;-69
2022/05/30 11:46:50;;;;;;;4.93;1.55;;;;;;;;;;5343783;28;20110;-70
2022/05/30 11:49:35;;;;;;;2.58;0.32;;;;;;;;;;5342703;28;20050;-68
2022/05/30 11:52:07;;;;;;;3.35;0.30;;;;;;;;;;5343737;27;20055;-68
2022/05/30 11:54:42;;;;;;;2.17;0.40;;;;;;;;;;5343055;28;20019;-69
2022/05/30 11:57:23;;;;;;;3.75;0.63;;;;;;;;;;5343898;28;20023;-69
2022/05/30 12:00:13;;;;;;;2.83;0.40;;;;;;;;;;5339581;27;20088;-69
2022/05/30 12:02:54;;;;;;;3.28;0.40;;;;;;;;;;5344307;28;20023;-69
2022/05/30 12:05:44;;;;;;;3.88;0.50;;;;;;;;;;5344268;28;20713;-69
2022/05/30 12:08:28;;;;;;;3.75;0.40;;;;;;;;;;5343584;28;20473;-71
2022/05/30 12:10:59;;;;;;;2.33;0.40;;;;;;;;;;5344610;28;20016;-69
2022/05/30 12:13:37;;;;;;;3.78;0.50;;;;;;;;;;5344140;28;20508;-69
2022/05/30 12:16:18;;;;;;;4.80;0.65;;;;;;;;;;5343311;28;20058;-70
2022/05/30 12:24:39;;;;;;;2.83;0.40;;;;;;;;;;5348342;27;20465;-72
2022/05/30 12:27:12;;;;;;;3.67;0.40;;;;;;;;;;5348195;27;20023;-72
2022/05/30 12:29:43;;;;;;;2.40;0.60;;;;;;;;;;5347602;27;20060;-72
2022/05/30 12:32:20;;;;;;;3.95;0.30;;;;;;;;;;5348276;27;20458;-72
2022/05/30 12:37:43;;;;;;;2.88;0.45;;;;;;;;;;5347172;27;20450;-71
2022/05/30 12:40:24;;;;;;;4.40;0.40;;;;;;;;;;5348018;27;20038;-71
2022/05/30 12:42:57;;;;;;;3.75;0.50;;;;;;;;;;5347508;27;20058;-71
2022/05/30 12:45:50;;;;;;;2.50;0.20;;;;;;;;;;5347581;27;20394;-72
2022/05/30 12:48:31;;;;;;;2.55;0.50;;;;;;;;;;5347403;27;20031;-72
2022/05/30 12:51:08;;;;;;;2.05;0.40;;;;;;;;;;5347230;27;20031;-72
2022/05/30 12:54:00;;;;;;;1.63;0.40;;;;;;;;;;5346944;27;20031;-71
2022/05/30 12:56:38;;;;;;;2.95;0.60;;;;;;;;;;5346339;27;20119;-73
2022/05/30 12:59:16;;;;;;;2.03;0.32;;;;;;;;;;5347191;27;20015;-71
2022/05/30 13:01:48;;;;;;;2.05;0.40;;;;;;;;;;5347559;27;20042;-71
2022/05/30 13:04:35;;;;;;;5.03;0.45;;;;;;;;;;5346157;27;20436;-71
2022/05/30 13:07:06;;;;;;;2.72;0.38;;;;;;;;;;5347335;27;20012;-71
2022/05/30 13:09:40;;;;;;;3.13;0.40;;;;;;;;;;5347454;27;20492;-71
2022/05/30 13:12:11;;;;;;;1.60;0.30;;;;;;;;;;5346092;27;20027;-71
2022/05/30 13:14:48;;;;;;;2.50;0.32;;;;;;;;;;5346129;27;20434;-70
2022/05/30 13:17:19;;;;;;;4.93;0.30;;;;;;;;;;5345280;27;20043;-71
2022/05/30 13:19:52;;;;;;;3.27;0.80;;;;;;;;;;5346347;27;20019;-71
2022/05/30 13:22:42;;;;;;;5.28;0.52;;;;;;;;;;5346620;27;20754;-71
2022/05/30 13:25:19;;;;;;;6.47;0.60;;;;;;;;;;5345938;27;20027;-71
2022/05/30 13:27:50;;;;;;;1.77;0.30;;;;;;;;;;5346978;27;20015;-71
2022/05/30 13:30:27;;;;;;;4.95;0.85;;;;;;;;;;5346251;27;20018;-71
2022/05/30 13:32:58;;;;;;;2.25;0.20;;;;;;;;;;5346570;27;20027;-71
2022/05/30 13:35:31;;;;;;;2.47;0.30;;;;;;;;;;5346222;27;20022;-71
2022/05/30 13:38:04;;;;;;;3.33;0.30;;;;;;;;;;5346492;27;20051;-71
2022/05/30 13:40:35;;;;;;;3.13;0.20;;;;;;;;;;5346004;27;20088;-71
2022/05/30 13:43:19;;;;;;;2.30;0.30;;;;;;;;;;5346606;27;20077;-71
2022/05/30 13:45:50;;;;;;;3.05;0.30;;;;;;;;;;5346155;27;20107;-71
2022/05/30 13:48:21;;;;;;;4.25;0.32;;;;;;;;;;5346184;27;20055;-71
2022/05/30 13:50:54;;;;;;;2.67;0.30;;;;;;;;;;5346918;27;20272;-71
2022/05/30 13:53:27;;;;;;;3.95;0.30;;;;;;;;;;5345284;27;20023;-71
2022/05/30 13:56:00;;;;;;;3.58;0.30;;;;;;;;;;5346695;27;20484;-71
2022/05/30 13:58:32;;;;;;;4.43;0.68;;;;;;;;;;5346055;27;20042;-71
2022/05/30 14:01:10;;;;;;;2.38;0.40;;;;;;;;;;5345306;27;20015;-71
2022/05/30 14:03:45;;;;;;;5.70;0.40;;;;;;;;;;5346393;27;20034;-71
2022/05/30 14:06:21;;;;;;;5.90;0.50;;;;;;;;;;5346217;27;20423;-71
2022/05/30 14:08:52;;;;;;;3.70;0.55;;;;;;;;;;5345726;27;20098;-72
2022/05/30 14:11:23;;;;;;;2.07;0.30;;;;;;;;;;5345628;27;20120;-72
2022/05/30 14:13:55;;;;;;;5.65;0.40;;;;;;;;;;5345728;27;20280;-72
2022/05/30 14:16:31;;;;;;;2.95;0.20;;;;;;;;;;5345327;27;20117;-71
2022/05/30 14:19:24;;;;;;;1.98;0.38;;;;;;;;;;5346129;27;20015;-71
2022/05/30 14:21:58;;;;;;;2.95;0.30;;;;;;;;;;5345442;27;20023;-71
2022/05/30 14:24:32;;;;;;;3.25;0.30;;;;;;;;;;5345577;27;20037;-70
2022/05/30 14:27:07;;;;;;;3.10;0.40;;;;;;;;;;5345796;27;20011;-70
2022/05/30 14:29:39;;;;;;;2.95;0.63;;;;;;;;;;5344683;27;20467;-70
2022/05/30 14:32:10;;;;;;;2.28;0.60;;;;;;;;;;5345615;27;20050;-70
2022/05/30 14:34:42;;;;;;;2.58;0.40;;;;;;;;;;5345415;27;20019;-70
2022/05/30 14:37:14;;;;;;;3.20;0.30;;;;;;;;;;5344430;27;20026;-72
2022/05/30 14:39:47;;;;;;;4.45;0.40;;;;;;;;;;5345624;27;20011;-70
2022/05/30 14:42:20;;;;;;;3.00;0.47;;;;;;;;;;5343430;27;20035;-71
2022/05/30 14:44:54;;;;;;;3.10;0.50;;;;;;;;;;5345711;27;20019;-71
2022/05/30 14:47:32;;;;;;;2.65;0.40;;;;;;;;;;5345257;27;20023;-71
2022/05/30 14:50:07;;;;;;;3.05;0.40;;;;;;;;;;5344905;27;20466;-71
2022/05/30 14:52:42;;;;;;;3.28;0.50;;;;;;;;;;5345158;27;20469;-71
2022/05/30 14:55:19;;;;;;;3.20;0.40;;;;;;;;;;5345085;27;20023;-71
2022/05/30 14:57:51;;;;;;;2.90;0.50;;;;;;;;;;5344852;27;20079;-71
2022/05/30 15:00:23;;;;;;;3.25;0.32;;;;;;;;;;5345136;27;20534;-71
2022/05/30 15:05:44;;;;;;;7.80;0.40;;;;;;;;;;5345089;27;20432;-71
2022/05/30 15:08:15;;;;;;;3.03;0.30;;;;;;;;;;5345050;27;20007;-71
2022/05/30 15:10:46;;;;;;;6.43;1.38;;;;;;;;;;5344386;27;20343;-71
2022/05/30 15:13:17;;;;;;;2.20;0.38;;;;;;;;;;5345151;27;20137;-71
2022/05/30 15:15:48;;;;;;;2.92;0.60;;;;;;;;;;5344466;27;20362;-71
2022/05/30 15:18:19;;;;;;;3.58;0.43;;;;;;;;;;5341167;27;20283;-72
2022/05/30 15:20:51;;;;;;;2.92;0.40;;;;;;;;;;5344103;27;20196;-71
2022/05/30 15:23:22;;;;;;;1.98;0.50;;;;;;;;;;5344965;28;20023;-71
2022/05/30 15:25:53;;;;;;;6.68;1.27;;;;;;;;;;5344664;28;20257;-71
2022/05/30 15:28:24;;;;;;;2.28;0.50;;;;;;;;;;5344412;28;20046;-72
2022/05/30 15:30:56;;;;;;;4.07;0.63;;;;;;;;;;5345342;28;20022;-71
2022/05/30 15:33:27;;;;;;;2.43;0.60;;;;;;;;;;5343944;28;20264;-71
2022/05/30 15:35:58;;;;;;;4.57;0.40;;;;;;;;;;5344909;28;20635;-71
2022/05/30 15:38:29;;;;;;;4.72;0.40;;;;;;;;;;5343480;28;20138;-71
2022/05/30 15:41:00;;;;;;;3.78;0.50;;;;;;;;;;5344758;28;20023;-72
2022/05/30 15:43:32;;;;;;;2.83;0.40;;;;;;;;;;5344761;28;20022;-71
2022/05/30 15:46:03;;;;;;;5.80;0.50;;;;;;;;;;5343985;28;20094;-71
2022/05/30 15:48:34;;;;;;;3.95;0.40;;;;;;;;;;5344463;28;20273;-71
2022/05/30 15:51:06;;;;;;;2.47;0.40;;;;;;;;;;5339352;28;20632;-71